Gainesville, Florida
Current Conditions -  °F | °C
As of 5:53 PM on Wednesday 17 Dec 2014 (Local Time) from KGNV Reporting Station
Clear Clear  
Wind Chill: 58°   Ceiling: Unl
Heat Index: 58°   Visibility: 10mi
Dew Point: 45°   Wind: 6mph
Humidity: 62%   Direction: 310°NW
Pressure: 30.14"   Gusts: NA
Location:  29.65°N, 82.32°W
Report Text: KGNV 172253Z 31005KT 10SM CLR 14/07 A3014 RMK AO2 SLP204 T01440072
Loading
Personal Weather Stations






























Interactive Weather Map New forecast layout! Learn more

10-Day Weather Forecast

Advertisements
Track Severe Weather on mobile